Time;durP1;ratioP1;P1;durP2;ratioP2;P2;SDS_P1;SDS_P2;PMS_P1;PMS_P2;Temp;Humidity;BMP_temperature;BMP_pressure;BME280_temperature;BME280_humidity;BME280_pressure;Samples;Min_cycle;Max_cycle;Signal;HPM_P1;HPM_P2
2022/03/11 00:01:48;;;;;;;42.85;15.57;;;;;;;-1.33;38.29;94468.59;4969851;28;20035;-74
2022/03/11 00:04:14;;;;;;;37.45;13.98;;;;;;;-1.30;38.76;94480.38;4964408;28;20395;-76
2022/03/11 00:06:39;;;;;;;34.97;13.90;;;;;;;-1.33;38.82;94484.25;4965802;28;20085;-76
2022/03/11 00:09:04;;;;;;;35.88;11.90;;;;;;;-1.29;38.74;94482.78;4964359;28;20058;-76
2022/03/11 00:11:30;;;;;;;47.25;16.20;;;;;;;-1.31;38.80;94469.16;4959170;28;20030;-74
2022/03/11 00:13:56;;;;;;;24.67;9.88;;;;;;;-1.09;38.82;94488.50;4966727;28;20026;-75
2022/03/11 00:16:22;;;;;;;21.33;8.30;;;;;;;-1.30;38.90;94449.88;4974111;28;20030;-75
2022/03/11 00:18:48;;;;;;;43.17;16.95;;;;;;;-1.16;38.90;94477.34;4968416;28;20046;-75
2022/03/11 00:21:14;;;;;;;13.27;7.63;;;;;;;-1.35;39.07;94464.59;4959444;28;20042;-74
2022/03/11 00:23:40;;;;;;;14.40;6.75;;;;;;;-1.34;39.39;94467.00;4973629;28;21210;-74
2022/03/11 00:26:06;;;;;;;10.13;5.85;;;;;;;-1.33;39.33;94484.25;4965431;28;20472;-75
2022/03/11 00:28:31;;;;;;;11.82;5.53;;;;;;;-1.62;39.44;94472.00;4962127;28;20493;-76
2022/03/11 00:30:57;;;;;;;18.90;8.25;;;;;;;-1.56;39.72;94471.94;4958854;28;20061;-73
2022/03/11 00:33:23;;;;;;;30.35;12.30;;;;;;;-1.66;39.70;94457.81;4966479;28;20027;-75
2022/03/11 00:35:48;;;;;;;25.50;10.48;;;;;;;-1.56;39.73;94471.94;4964876;28;20049;-75
2022/03/11 00:38:16;;;;;;;22.50;10.40;;;;;;;-1.49;39.64;94474.44;4962203;28;20208;-74
2022/03/11 00:40:42;;;;;;;28.25;11.13;;;;;;;-1.53;39.72;94465.47;4964916;28;20502;-75
2022/03/11 00:43:07;;;;;;;21.42;9.63;;;;;;;-1.48;39.69;94465.59;4966752;28;20034;-75
2022/03/11 00:45:32;;;;;;;10.73;5.43;;;;;;;-1.44;39.71;94474.56;4959250;28;20511;-75
2022/03/11 00:47:58;;;;;;;12.70;6.30;;;;;;;-1.65;39.53;94441.94;4961293;28;20070;-74
2022/03/11 00:50:24;;;;;;;14.85;6.57;;;;;;;-1.48;39.44;94468.19;4971295;28;20038;-73
2022/03/11 00:52:50;;;;;;;14.07;7.60;;;;;;;-1.59;39.65;94463.72;4959704;28;20405;-72
2022/03/11 00:55:15;;;;;;;9.13;6.18;;;;;;;-1.75;39.48;94430.47;4959336;28;20409;-74
2022/03/11 00:57:41;;;;;;;10.48;6.55;;;;;;;-1.58;39.25;94460.13;4963255;28;20449;-72
2022/03/11 01:00:08;;;;;;;8.82;5.28;;;;;;;-1.99;39.60;94421.72;4963411;28;20411;-72
2022/03/11 01:02:37;;;;;;;14.40;6.53;;;;;;;-1.81;39.99;94466.03;4957499;28;20622;-73
2022/03/11 01:05:04;;;;;;;6.50;4.45;;;;;;;-1.78;39.61;94467.41;4972069;28;20043;-72
2022/03/11 01:07:29;;;;;;;6.32;4.22;;;;;;;-2.00;39.76;94465.28;4972337;28;20122;-73
2022/03/11 01:09:55;;;;;;;9.65;5.43;;;;;;;-2.04;39.72;94443.25;4963819;28;20030;-73
2022/03/11 01:12:21;;;;;;;10.75;6.65;;;;;;;-1.94;39.79;94464.38;4962608;28;20571;-72
2022/03/11 01:14:46;;;;;;;19.58;8.43;;;;;;;-1.91;39.69;94473.59;4962016;28;20045;-72
2022/03/11 01:17:12;;;;;;;12.20;7.05;;;;;;;-2.08;39.20;94447.31;4960408;28;20026;-74
2022/03/11 01:19:39;;;;;;;13.43;6.40;;;;;;;-2.42;39.94;94458.34;4959038;28;20027;-72
2022/03/11 01:22:04;;;;;;;9.55;6.28;;;;;;;-2.38;40.82;94480.31;4963867;28;20042;-72
2022/03/11 01:24:30;;;;;;;13.07;6.55;;;;;;;-2.69;40.84;94442.19;4955214;28;20078;-73
2022/03/11 01:26:55;;;;;;;12.48;6.55;;;;;;;-2.44;40.64;94474.19;4965077;28;20053;-72
2022/03/11 01:29:23;;;;;;;8.70;4.53;;;;;;;-2.64;40.92;94467.59;4967082;28;20384;-75
2022/03/11 01:31:50;;;;;;;9.30;5.55;;;;;;;-2.54;40.69;94467.88;4967424;28;20042;-71
2022/03/11 01:34:15;;;;;;;10.48;5.60;;;;;;;-2.60;40.80;94473.94;4960233;28;20130;-72
2022/03/11 01:36:41;;;;;;;10.55;5.60;;;;;;;-2.89;40.91;94444.97;4966724;28;20489;-72
2022/03/11 01:39:06;;;;;;;9.20;5.53;;;;;;;-2.77;40.96;94468.50;4966682;28;20500;-73
2022/03/11 01:41:32;;;;;;;9.82;5.35;;;;;;;-2.64;40.76;94472.78;4988766;28;20730;-74
2022/03/11 01:44:01;;;;;;;11.00;5.97;;;;;;;-2.79;41.01;94471.31;4966130;28;20176;-73
2022/03/11 01:46:30;;;;;;;9.63;4.85;;;;;;;-2.83;41.29;94461.56;4965947;28;20043;-72
2022/03/11 01:48:57;;;;;;;22.67;8.90;;;;;;;-2.80;41.74;94477.53;4959440;28;20035;-72
2022/03/11 01:51:23;;;;;;;27.40;9.10;;;;;;;-2.66;41.77;94459.97;4968850;28;20876;-73
2022/03/11 01:53:49;;;;;;;16.30;7.43;;;;;;;-2.60;41.65;94474.75;4964698;28;20157;-73
2022/03/11 01:56:14;;;;;;;8.98;5.38;;;;;;;-2.66;41.33;94477.41;4966301;28;20489;-72
2022/03/11 01:58:40;;;;;;;10.90;6.70;;;;;;;-2.86;41.88;94469.78;4968318;28;20500;-73
2022/03/11 02:01:06;;;;;;;18.23;7.70;;;;;;;-2.82;41.80;94460.53;4972151;28;20596;-72
2022/03/11 02:03:32;;;;;;;24.52;10.00;;;;;;;-2.74;41.97;94462.88;4960937;28;20038;-74
2022/03/11 02:06:01;;;;;;;18.95;8.25;;;;;;;-2.71;41.65;94458.03;4967775;28;20030;-74
2022/03/11 02:08:26;;;;;;;9.45;6.35;;;;;;;-2.77;41.56;94450.25;4971213;28;20035;-72
2022/03/11 02:10:53;;;;;;;16.83;7.50;;;;;;;-2.58;41.57;94466.72;4969883;28;20050;-73
2022/03/11 02:13:18;;;;;;;18.05;7.43;;;;;;;-2.81;41.67;94438.69;4962158;28;20042;-73
2022/03/11 02:15:44;;;;;;;17.73;6.90;;;;;;;-2.75;41.88;94463.88;4964430;28;20503;-74
2022/03/11 02:18:09;;;;;;;18.65;9.90;;;;;;;-2.69;41.93;94476.03;4966827;28;20039;-72
2022/03/11 02:20:35;;;;;;;19.40;7.50;;;;;;;-3.45;41.70;94358.41;4967399;28;20124;-72
2022/03/11 02:23:02;;;;;;;9.82;5.97;;;;;;;-2.87;41.51;94432.53;4966290;28;20114;-73
2022/03/11 02:25:28;;;;;;;12.30;6.82;;;;;;;-3.04;41.32;94426.31;4968279;28;20399;-72
2022/03/11 02:27:53;;;;;;;16.08;7.75;;;;;;;-2.54;40.98;94470.50;4967104;28;20634;-72
2022/03/11 02:30:20;;;;;;;8.50;5.10;;;;;;;-2.80;41.08;94474.94;4959962;28;20084;-73
2022/03/11 02:32:47;;;;;;;7.90;5.53;;;;;;;-3.24;41.77;94478.50;4963134;28;20077;-73
2022/03/11 02:35:13;;;;;;;10.00;4.80;;;;;;;-3.46;41.98;94453.84;4972973;28;20030;-72
2022/03/11 02:37:39;;;;;;;7.18;3.85;;;;;;;-3.53;42.51;94480.91;4948409;28;20038;-72
2022/03/11 02:40:05;;;;;;;8.50;4.22;;;;;;;-3.95;42.52;94406.97;4959282;28;20045;-72
2022/03/11 02:42:31;;;;;;;6.57;4.45;;;;;;;-3.83;42.69;94463.28;4968219;28;20487;-72
2022/03/11 02:45:04;;;;;;;5.60;3.97;;;;;;;-3.79;42.81;94480.03;4968321;28;20062;-73
2022/03/11 02:47:30;;;;;;;11.52;5.25;;;;;;;-3.82;43.06;94485.66;4972471;28;20031;-72
2022/03/11 02:49:55;;;;;;;10.30;4.57;;;;;;;-3.75;43.10;94486.41;4972540;28;20480;-73
2022/03/11 02:52:22;;;;;;;8.93;4.68;;;;;;;-3.82;43.26;94467.47;4969945;28;20047;-74
2022/03/11 02:54:48;;;;;;;7.72;5.20;;;;;;;-3.54;43.06;94492.31;4969824;28;20041;-74
2022/03/11 02:57:15;;;;;;;8.10;4.93;;;;;;;-3.49;42.98;94489.88;4969898;28;20035;-74
2022/03/11 02:59:45;;;;;;;9.00;5.15;;;;;;;-3.45;42.88;94491.03;4966156;28;20046;-74
2022/03/11 03:02:12;;;;;;;10.57;5.40;;;;;;;-3.55;43.02;94468.09;4966042;28;20023;-74
2022/03/11 03:04:37;;;;;;;7.82;5.25;;;;;;;-3.37;42.96;94485.59;4971465;28;20572;-74
2022/03/11 03:07:03;;;;;;;10.18;5.05;;;;;;;-3.35;42.95;94494.78;4968962;28;20046;-75
2022/03/11 03:09:31;;;;;;;7.00;4.55;;;;;;;-3.44;42.76;94466.63;4965889;28;20113;-74
2022/03/11 03:11:56;;;;;;;9.98;5.63;;;;;;;-3.37;42.44;94467.41;4979242;28;20045;-73
2022/03/11 03:14:21;;;;;;;11.52;5.95;;;;;;;-3.45;42.47;94480.63;4963985;28;20026;-72
2022/03/11 03:16:47;;;;;;;6.32;4.20;;;;;;;-3.62;42.79;94491.56;4967007;28;20034;-73
2022/03/11 03:19:12;;;;;;;7.47;4.53;;;;;;;-3.82;42.88;94462.28;4967829;28;20042;-72
2022/03/11 03:21:39;;;;;;;8.23;4.97;;;;;;;-3.61;42.91;94461.94;4968337;28;20308;-73
2022/03/11 03:24:05;;;;;;;8.25;4.22;;;;;;;-3.63;42.86;94495.16;4961032;28;20062;-73
2022/03/11 03:26:31;;;;;;;9.27;5.05;;;;;;;-3.57;42.88;94488.31;4967222;28;20375;-73
2022/03/11 03:28:56;;;;;;;7.25;4.07;;;;;;;-3.54;42.47;94485.28;4968608;28;20038;-72
2022/03/11 03:31:22;;;;;;;7.18;4.43;;;;;;;-3.78;42.73;94455.66;4966769;28;20046;-72
2022/03/11 03:33:48;;;;;;;7.32;4.97;;;;;;;-3.75;42.78;94460.41;4963121;28;20042;-72
2022/03/11 03:36:20;;;;;;;7.07;4.63;;;;;;;-3.64;42.76;94474.56;4969181;28;20035;-75
2022/03/11 03:38:45;;;;;;;9.95;4.47;;;;;;;-3.47;42.90;94487.88;4971562;28;20041;-73
2022/03/11 03:41:10;;;;;;;7.20;4.55;;;;;;;-3.60;42.59;94473.94;4970022;28;20031;-72
2022/03/11 03:43:36;;;;;;;6.15;4.28;;;;;;;-3.52;42.58;94478.09;4962751;28;20508;-72
2022/03/11 03:46:01;;;;;;;5.97;3.42;;;;;;;-3.33;41.97;94489.38;4972304;28;20035;-72
2022/03/11 03:48:27;;;;;;;4.78;3.72;;;;;;;-3.72;42.22;94470.41;4962092;28;20038;-73
2022/03/11 03:50:52;;;;;;;5.88;3.47;;;;;;;-3.59;42.34;94487.72;4968430;28;20072;-74
2022/03/11 03:53:17;;;;;;;6.50;3.78;;;;;;;-3.65;42.27;94476.34;4960423;28;20141;-73
2022/03/11 03:55:43;;;;;;;9.15;3.65;;;;;;;-3.50;42.11;94498.66;4969620;28;20143;-72
2022/03/11 03:58:08;;;;;;;5.35;4.00;;;;;;;-3.57;42.04;94480.53;4996554;28;20038;-73
2022/03/11 04:00:34;;;;;;;5.18;3.67;;;;;;;-3.44;41.89;94497.84;4962285;28;20141;-72
2022/03/11 04:02:59;;;;;;;7.25;3.47;;;;;;;-3.56;41.41;94479.50;4964174;28;20421;-73
2022/03/11 04:05:25;;;;;;;3.35;2.92;;;;;;;-3.41;41.48;94497.41;4964704;28;20026;-76
2022/03/11 04:07:51;;;;;;;4.18;3.70;;;;;;;-3.68;41.70;94463.00;4968403;28;20133;-75
2022/03/11 04:10:20;;;;;;;7.80;4.22;;;;;;;-3.71;41.57;94461.59;4964619;28;20035;-75
2022/03/11 04:12:45;;;;;;;4.43;3.35;;;;;;;-3.42;41.29;94493.25;4970409;28;20034;-75
2022/03/11 04:15:11;;;;;;;7.85;4.47;;;;;;;-3.50;41.52;94489.06;4961566;28;20438;-75
2022/03/11 04:17:37;;;;;;;5.40;3.97;;;;;;;-3.61;41.67;94515.75;4968810;28;20137;-75
2022/03/11 04:20:05;;;;;;;6.13;4.50;;;;;;;-3.88;42.11;94470.88;4965070;28;20574;-75
2022/03/11 04:22:30;;;;;;;7.95;4.10;;;;;;;-3.71;42.20;94497.97;4972763;28;20694;-75
2022/03/11 04:24:55;;;;;;;5.38;3.65;;;;;;;-3.60;41.86;94489.53;4989521;28;20046;-75
2022/03/11 04:27:21;;;;;;;3.95;3.28;;;;;;;-3.46;41.94;94531.09;4966366;28;20041;-75
2022/03/11 04:29:46;;;;;;;7.22;4.15;;;;;;;-3.51;41.99;94528.31;4968711;28;20046;-74
2022/03/11 04:32:12;;;;;;;7.55;5.13;;;;;;;-3.73;42.10;94489.59;4963974;28;20045;-75
2022/03/11 04:34:37;;;;;;;10.60;5.20;;;;;;;-3.54;42.36;94533.91;4969316;28;20576;-76
2022/03/11 04:37:03;;;;;;;7.50;4.95;;;;;;;-3.88;42.61;94511.66;4969593;28;20129;-76
2022/03/11 04:39:29;;;;;;;7.28;5.07;;;;;;;-3.95;42.75;94503.88;4968853;28;20549;-75
2022/03/11 04:41:55;;;;;;;8.23;4.68;;;;;;;-4.03;43.04;94509.34;4959819;28;20548;-74
2022/03/11 04:44:20;;;;;;;8.55;5.25;;;;;;;-4.00;42.95;94501.91;4972054;28;20034;-74
2022/03/11 04:46:46;;;;;;;8.77;5.43;;;;;;;-3.99;43.55;94533.91;4967764;28;20456;-75
2022/03/11 04:49:12;;;;;;;10.63;4.95;;;;;;;-4.02;43.90;94518.72;4966074;28;20087;-74
2022/03/11 04:51:42;;;;;;;10.27;5.50;;;;;;;-4.11;43.78;94536.34;4970548;28;20125;-74
2022/03/11 04:54:08;;;;;;;13.05;6.22;;;;;;;-4.27;44.29;94533.38;4962501;28;20036;-75
2022/03/11 04:56:34;;;;;;;11.07;5.30;;;;;;;-4.28;44.66;94532.59;4966143;28;20141;-75
2022/03/11 04:58:59;;;;;;;8.32;5.03;;;;;;;-4.35;44.30;94499.84;4958531;28;20028;-74
2022/03/11 05:01:25;;;;;;;15.05;8.15;;;;;;;-4.09;44.62;94536.13;4963609;28;20607;-74
2022/03/11 05:03:50;;;;;;;13.65;8.65;;;;;;;-4.10;44.36;94531.97;4966360;28;20065;-75
2022/03/11 05:06:16;;;;;;;17.92;8.10;;;;;;;-4.00;44.23;94527.13;4964366;28;20109;-74
2022/03/11 05:08:42;;;;;;;12.57;7.88;;;;;;;-3.96;44.07;94514.50;4967666;28;20046;-75
2022/03/11 05:11:07;;;;;;;13.25;6.75;;;;;;;-3.90;44.12;94535.25;4978287;28;20033;-75
2022/03/11 05:13:33;;;;;;;10.43;6.18;;;;;;;-3.75;43.78;94535.78;4964785;28;20042;-75
2022/03/11 05:15:58;;;;;;;14.80;8.32;;;;;;;-3.79;43.61;94519.03;4966230;28;20275;-74
2022/03/11 05:18:25;;;;;;;58.65;16.48;;;;;;;-3.85;43.59;94501.66;4966827;28;20523;-76
2022/03/11 05:20:50;;;;;;;43.78;15.82;;;;;;;-3.66;43.60;94531.19;4968487;28;20038;-75
2022/03/11 05:23:16;;;;;;;38.65;15.32;;;;;;;-3.51;43.39;94544.69;4962307;28;20585;-74
2022/03/11 05:25:41;;;;;;;103.38;32.35;;;;;;;-3.91;43.67;94517.28;4965234;28;20058;-75
2022/03/11 05:28:07;;;;;;;75.78;32.60;;;;;;;-3.70;43.68;94545.56;4969081;28;20042;-75
2022/03/11 05:30:33;;;;;;;75.15;26.38;;;;;;;-3.62;43.73;94553.97;4964161;28;20045;-76
2022/03/11 05:32:58;;;;;;;45.97;20.48;;;;;;;-3.54;43.67;94549.50;4973898;28;20034;-76
2022/03/11 05:35:24;;;;;;;37.45;15.30;;;;;;;-3.37;43.55;94561.84;4965932;28;20540;-75
2022/03/11 05:37:49;;;;;;;14.20;7.80;;;;;;;-3.32;43.23;94563.81;4968703;28;20161;-74
2022/03/11 05:40:14;;;;;;;19.55;8.98;;;;;;;-3.51;43.74;94569.91;4965445;28;20049;-74
2022/03/11 05:42:40;;;;;;;22.38;9.25;;;;;;;-3.45;43.96;94546.44;4972047;28;20381;-75
2022/03/11 05:45:07;;;;;;;29.92;13.15;;;;;;;-3.23;43.88;94578.16;4968109;28;20034;-74
2022/03/11 05:47:33;;;;;;;50.55;18.77;;;;;;;-3.06;43.58;94579.25;4970606;28;20443;-74
2022/03/11 05:49:58;;;;;;;56.92;21.48;;;;;;;-3.09;43.57;94553.66;4973975;28;20038;-74
2022/03/11 05:52:24;;;;;;;33.63;14.55;;;;;;;-3.02;43.64;94566.63;4970920;28;20543;-74
2022/03/11 05:54:50;;;;;;;20.05;8.38;;;;;;;-3.08;44.04;94560.47;4965769;28;20039;-73
2022/03/11 05:57:15;;;;;;;18.67;10.02;;;;;;;-2.85;44.16;94573.69;4966460;28;20047;-74
2022/03/11 05:59:41;;;;;;;18.15;9.10;;;;;;;-2.72;44.32;94580.59;4965297;28;20030;-75
2022/03/11 06:02:06;;;;;;;34.17;11.90;;;;;;;-2.77;44.60;94557.81;4963478;28;21441;-73
2022/03/11 06:04:32;;;;;;;36.25;14.00;;;;;;;-2.65;44.89;94555.31;4969794;28;20065;-75
2022/03/11 06:06:57;;;;;;;30.50;13.68;;;;;;;-2.40;44.97;94571.75;4970521;28;20042;-74
2022/03/11 06:09:23;;;;;;;16.58;10.23;;;;;;;-2.12;44.06;94580.91;4976305;28;20035;-74
2022/03/11 06:11:48;;;;;;;18.73;9.30;;;;;;;-2.20;44.34;94584.59;4963613;28;20124;-75
2022/03/11 06:14:13;;;;;;;17.67;8.85;;;;;;;-2.26;44.52;94581.03;4969983;28;20515;-74
2022/03/11 06:16:39;;;;;;;27.15;10.95;;;;;;;-2.34;44.84;94544.81;4971319;28;20023;-75
2022/03/11 06:19:04;;;;;;;18.20;9.80;;;;;;;-2.19;44.63;94560.09;4971198;28;20062;-74
2022/03/11 06:21:30;;;;;;;13.40;7.72;;;;;;;-2.61;44.17;94566.09;4969056;28;20733;-74
2022/03/11 06:23:56;;;;;;;15.60;7.90;;;;;;;-2.74;44.92;94583.44;4973314;28;20046;-75
2022/03/11 06:26:22;;;;;;;10.80;6.80;;;;;;;-2.61;44.48;94542.66;4970005;28;20067;-74
2022/03/11 06:28:48;;;;;;;10.45;6.50;;;;;;;-2.02;43.70;94576.78;4966065;28;20485;-74
2022/03/11 06:31:13;;;;;;;11.98;6.78;;;;;;;-1.89;43.27;94576.63;4968348;28;20038;-75
2022/03/11 06:33:38;;;;;;;13.13;8.20;;;;;;;-1.92;43.40;94574.47;4966066;28;20197;-74
2022/03/11 06:36:05;;;;;;;15.45;8.43;;;;;;;-2.64;45.15;94603.00;4985850;28;20038;-76
2022/03/11 06:38:30;;;;;;;18.27;8.75;;;;;;;-2.93;46.27;94609.63;4975699;28;20043;-75
2022/03/11 06:40:56;;;;;;;24.48;14.20;;;;;;;-3.17;47.09;94608.56;4969407;28;20109;-74
2022/03/11 06:43:22;;;;;;;12.90;6.47;;;;;;;-3.13;46.44;94617.53;4966502;28;20693;-74
2022/03/11 06:45:48;;;;;;;17.45;8.48;;;;;;;-2.43;45.71;94608.63;4969736;28;20045;-75
2022/03/11 06:48:14;;;;;;;19.58;8.35;;;;;;;-3.09;46.47;94563.25;4965716;28;20038;-75
2022/03/11 06:50:39;;;;;;;24.88;9.40;;;;;;;-2.91;46.65;94603.19;4971845;28;20140;-74
2022/03/11 06:53:05;;;;;;;15.25;8.82;;;;;;;-2.53;45.48;94576.25;4969889;28;20489;-75
2022/03/11 06:55:30;;;;;;;16.92;7.95;;;;;;;-2.03;44.25;94601.25;4966402;28;20037;-75
2022/03/11 06:57:56;;;;;;;13.57;8.38;;;;;;;-2.11;44.22;94616.38;4970455;28;20046;-75
2022/03/11 07:00:21;;;;;;;20.70;9.90;;;;;;;-2.23;44.93;94598.03;4972617;28;20058;-75
2022/03/11 07:02:46;;;;;;;16.27;8.40;;;;;;;-2.52;45.22;94585.66;4965461;28;20041;-75
2022/03/11 07:05:12;;;;;;;14.68;7.63;;;;;;;-2.17;44.35;94583.34;4967434;28;20542;-74
2022/03/11 07:07:38;;;;;;;15.57;7.88;;;;;;;-1.59;43.92;94613.22;4996028;28;20820;-75
2022/03/11 07:10:06;;;;;;;9.30;6.38;;;;;;;-1.48;43.45;94607.28;4971759;28;20035;-74
2022/03/11 07:12:32;;;;;;;13.73;8.10;;;;;;;-1.50;42.89;94590.22;4962856;28;20799;-74
2022/03/11 07:14:59;;;;;;;13.73;8.88;;;;;;;-2.13;43.71;94595.72;4969705;28;20105;-73
2022/03/11 07:17:25;;;;;;;24.08;14.63;;;;;;;-2.95;45.87;94596.78;4963663;28;20610;-74
2022/03/11 07:19:50;;;;;;;14.40;8.43;;;;;;;-2.40;45.15;94599.59;4968244;28;20035;-74
2022/03/11 07:22:16;;;;;;;18.17;9.40;;;;;;;-2.29;44.45;94593.69;4964930;28;20031;-74
2022/03/11 07:24:41;;;;;;;17.25;9.82;;;;;;;-2.35;45.34;94618.00;4969128;28;20050;-74
2022/03/11 07:27:07;;;;;;;18.73;12.50;;;;;;;-2.16;44.63;94590.16;4982167;28;20038;-74
2022/03/11 07:29:32;;;;;;;22.35;11.82;;;;;;;-2.26;45.28;94585.44;4966606;28;20083;-72
2022/03/11 07:31:58;;;;;;;23.42;11.70;;;;;;;-2.71;46.78;94616.06;4977537;28;20465;-75
2022/03/11 07:34:23;;;;;;;19.65;11.13;;;;;;;-2.83;47.07;94628.94;4971631;28;20038;-74
2022/03/11 07:36:52;;;;;;;18.23;11.45;;;;;;;-2.44;46.32;94593.22;4969260;28;20045;-75
2022/03/11 07:39:18;;;;;;;21.88;12.07;;;;;;;-2.50;46.67;94586.25;4967596;28;20401;-74
2022/03/11 07:41:43;;;;;;;19.80;11.40;;;;;;;-1.90;45.27;94611.53;4968865;28;20049;-74
2022/03/11 07:44:09;;;;;;;17.95;11.50;;;;;;;-1.73;44.38;94590.91;4962968;28;20035;-74
2022/03/11 07:46:35;;;;;;;21.60;11.00;;;;;;;-1.89;44.56;94615.75;4968426;28;20039;-74
2022/03/11 07:49:04;;;;;;;13.00;7.85;;;;;;;-2.72;44.91;94601.44;4964726;28;20034;-75
2022/03/11 07:51:30;;;;;;;14.27;7.30;;;;;;;-3.01;46.34;94623.66;4999638;28;20061;-74
2022/03/11 07:53:56;;;;;;;13.93;8.50;;;;;;;-2.98;46.16;94618.06;4967294;28;20046;-74
2022/03/11 07:56:22;;;;;;;55.20;18.13;;;;;;;-3.14;46.64;94621.13;4969915;28;20039;-74
2022/03/11 07:58:47;;;;;;;12.57;7.82;;;;;;;-2.97;46.22;94616.22;4966188;28;20023;-75
2022/03/11 08:01:13;;;;;;;17.70;7.72;;;;;;;-2.37;45.14;94625.22;4963242;28;20034;-75
2022/03/11 08:03:41;;;;;;;14.23;7.95;;;;;;;-2.50;44.16;94594.88;4968883;28;20125;-74
2022/03/11 08:06:08;;;;;;;12.27;7.32;;;;;;;-2.03;43.25;94621.31;4965062;28;20897;-75
2022/03/11 08:08:37;;;;;;;15.45;7.40;;;;;;;-1.90;42.88;94584.69;4969619;28;20464;-74
2022/03/11 08:11:03;;;;;;;15.05;8.00;;;;;;;-2.05;43.06;94598.06;4966797;28;20036;-74
2022/03/11 08:13:28;;;;;;;13.73;9.30;;;;;;;-2.96;44.35;94548.34;4964052;28;20045;-74
2022/03/11 08:15:54;;;;;;;11.00;6.93;;;;;;;-2.92;45.27;94611.19;4982580;28;20404;-74
2022/03/11 08:18:20;;;;;;;11.73;7.25;;;;;;;-3.44;45.94;94581.06;4966437;28;20843;-74
2022/03/11 08:20:46;;;;;;;17.10;8.55;;;;;;;-2.97;45.81;94619.63;4968600;28;20034;-73
2022/03/11 08:23:11;;;;;;;12.48;7.80;;;;;;;-2.36;45.11;94625.00;4966074;28;20365;-74
2022/03/11 08:25:37;;;;;;;11.60;6.97;;;;;;;-2.57;44.04;94625.38;4968531;28;20153;-74
2022/03/11 08:28:04;;;;;;;9.98;6.90;;;;;;;-2.93;44.93;94626.03;4970387;28;20066;-75
2022/03/11 08:30:31;;;;;;;11.68;6.07;;;;;;;-3.21;44.79;94607.34;4964497;28;20360;-74
2022/03/11 08:32:58;;;;;;;10.98;7.25;;;;;;;-3.33;44.82;94624.63;4965945;28;20572;-74
2022/03/11 08:35:24;;;;;;;9.63;5.45;;;;;;;-3.05;44.17;94604.28;4965645;28;20041;-73
2022/03/11 08:37:50;;;;;;;11.07;6.40;;;;;;;-2.31;42.95;94603.53;4968687;28;20018;-71
2022/03/11 08:40:15;;;;;;;8.63;5.63;;;;;;;-2.25;41.68;94620.91;4965158;28;20046;-72
2022/03/11 08:42:42;;;;;;;7.97;5.78;;;;;;;-1.78;40.54;94629.09;4965302;28;20038;-72
2022/03/11 08:45:10;;;;;;;8.90;5.78;;;;;;;-1.75;40.51;94618.25;4979845;28;20750;-73
2022/03/11 08:47:35;;;;;;;9.93;5.38;;;;;;;-1.88;40.83;94593.88;4966250;28;20451;-72
2022/03/11 08:50:04;;;;;;;11.35;6.88;;;;;;;-1.36;40.25;94607.31;4970645;28;20035;-72
2022/03/11 08:52:30;;;;;;;7.82;5.65;;;;;;;-1.39;39.69;94607.78;4965331;28;20150;-74
2022/03/11 08:54:56;;;;;;;9.40;6.50;;;;;;;-1.80;40.88;94569.31;4960319;28;20623;-74
2022/03/11 08:57:22;;;;;;;10.85;6.32;;;;;;;-1.95;40.87;94561.84;4964360;28;20062;-72
2022/03/11 08:59:47;;;;;;;9.57;5.78;;;;;;;-1.43;40.90;94596.19;4963798;28;20034;-74
2022/03/11 09:02:15;;;;;;;9.32;6.50;;;;;;;-1.97;40.37;94600.41;4960521;28;20027;-74
2022/03/11 09:04:41;;;;;;;13.70;6.82;;;;;;;-3.04;41.82;94556.41;4964370;28;20681;-72
2022/03/11 09:07:06;;;;;;;7.40;5.50;;;;;;;-2.30;42.02;94605.13;4961098;28;20046;-74
2022/03/11 09:09:32;;;;;;;7.80;5.13;;;;;;;-2.19;40.51;94575.75;4963634;28;20038;-71
2022/03/11 09:11:58;;;;;;;7.20;5.90;;;;;;;-2.28;39.99;94597.88;4964066;28;20510;-71
2022/03/11 09:14:24;;;;;;;9.13;5.78;;;;;;;-2.15;39.47;94537.84;4964784;28;20080;-73
2022/03/11 09:16:50;;;;;;;9.18;5.68;;;;;;;-2.52;39.88;94505.72;4959512;28;20428;-72
2022/03/11 09:19:15;;;;;;;11.70;5.75;;;;;;;-1.93;40.00;94600.75;4966409;28;20043;-71
2022/03/11 09:21:41;;;;;;;13.23;6.05;;;;;;;-2.58;41.86;94605.53;4964455;28;20054;-72
2022/03/11 09:24:07;;;;;;;9.32;5.90;;;;;;;-2.92;42.00;94585.97;4962418;28;20506;-71
2022/03/11 09:26:32;;;;;;;7.97;5.82;;;;;;;-2.29;41.51;94596.31;4960628;28;20100;-72
2022/03/11 09:28:58;;;;;;;9.75;5.68;;;;;;;-2.64;41.47;94576.97;4969304;28;20089;-72
2022/03/11 09:31:24;;;;;;;11.88;6.55;;;;;;;-2.06;41.08;94606.91;4964173;28;20359;-71
2022/03/11 09:33:49;;;;;;;8.48;4.32;;;;;;;-1.68;38.83;94582.44;4962229;28;20034;-72
2022/03/11 09:36:15;;;;;;;8.80;5.80;;;;;;;-1.59;38.42;94561.06;4965002;28;20528;-74
2022/03/11 09:38:40;;;;;;;9.82;6.00;;;;;;;-1.45;40.04;94600.81;4963287;28;20097;-73
2022/03/11 09:41:08;;;;;;;7.18;4.63;;;;;;;-1.49;37.99;94560.53;4965331;28;20043;-74
2022/03/11 09:43:35;;;;;;;12.23;6.60;;;;;;;-1.70;39.00;94607.94;4959850;28;20038;-71
2022/03/11 09:46:02;;;;;;;8.27;6.00;;;;;;;-2.27;40.22;94607.28;4963061;28;20409;-71
2022/03/11 09:48:28;;;;;;;9.35;5.60;;;;;;;-2.56;40.31;94589.72;4964393;28;20520;-75
2022/03/11 09:50:54;;;;;;;7.63;4.95;;;;;;;-1.92;39.64;94577.06;4969484;28;20045;-75
2022/03/11 09:53:19;;;;;;;10.68;5.45;;;;;;;-1.61;39.37;94593.59;4965511;28;20139;-74
2022/03/11 09:55:45;;;;;;;10.60;5.35;;;;;;;-1.20;39.39;94604.13;4967118;28;20381;-75
2022/03/11 09:58:11;;;;;;;7.63;4.53;;;;;;;-0.84;37.97;94578.94;4967457;28;20046;-73
2022/03/11 10:00:37;;;;;;;13.70;6.30;;;;;;;-0.59;37.95;94596.03;4962717;28;20442;-75
2022/03/11 10:03:05;;;;;;;8.75;5.13;;;;;;;-0.58;36.80;94589.00;4968435;28;20722;-71
2022/03/11 10:05:52;;;;;;;9.98;6.53;;;;;;;-0.95;38.23;94521.22;4961073;28;20535;-72
2022/03/11 10:08:34;;;;;;;8.82;5.72;;;;;;;-1.50;38.06;94564.94;4968412;28;20045;-72
2022/03/11 10:11:23;;;;;;;8.43;5.22;;;;;;;-1.61;39.23;94597.00;4965007;28;20113;-72
2022/03/11 10:13:51;;;;;;;16.23;7.45;;;;;;;-1.31;39.43;94588.41;4962495;28;20141;-72
2022/03/11 10:16:29;;;;;;;12.52;6.47;;;;;;;-0.70;38.48;94562.84;4965864;28;20037;-73
2022/03/11 10:19:00;;;;;;;8.80;5.40;;;;;;;-0.20;37.71;94586.75;4968440;28;20440;-72
2022/03/11 10:21:40;;;;;;;9.20;5.88;;;;;;;0.01;37.43;94584.59;4966151;28;20509;-73
2022/03/11 10:24:13;;;;;;;10.02;5.63;;;;;;;0.15;35.85;94573.66;4968150;28;20513;-72
2022/03/11 10:26:41;;;;;;;8.32;5.10;;;;;;;-0.34;35.75;94540.94;4969095;28;20035;-71
2022/03/11 10:29:13;;;;;;;8.77;4.93;;;;;;;0.00;35.78;94586.41;4967312;28;20131;-72
2022/03/11 10:31:43;;;;;;;12.20;6.75;;;;;;;-0.39;36.57;94553.91;4980948;28;20077;-74
2022/03/11 10:34:31;;;;;;;10.90;6.60;;;;;;;-0.05;37.13;94591.53;4967111;28;20027;-72
2022/03/11 10:36:58;;;;;;;10.57;6.20;;;;;;;-0.34;38.45;94601.06;4967485;28;20078;-74
2022/03/11 10:39:30;;;;;;;11.10;5.93;;;;;;;-0.66;39.05;94565.78;4967372;28;20038;-73
2022/03/11 10:42:13;;;;;;;12.57;5.93;;;;;;;-0.59;39.27;94575.13;4968845;28;20035;-74
2022/03/11 10:44:40;;;;;;;11.70;6.78;;;;;;;-0.79;40.12;94576.44;4979732;28;20118;-72
2022/03/11 10:47:23;;;;;;;8.10;5.25;;;;;;;-0.95;41.28;94589.13;4966999;28;20114;-71
2022/03/11 10:49:53;;;;;;;11.05;5.55;;;;;;;-1.21;42.76;94581.63;4969358;28;20245;-73
2022/03/11 10:52:32;;;;;;;7.65;5.38;;;;;;;-1.21;44.04;94586.84;4968852;28;20587;-72
2022/03/11 10:54:59;;;;;;;7.97;5.05;;;;;;;-1.43;43.73;94580.53;4964375;28;20073;-72
2022/03/11 10:57:38;;;;;;;11.82;6.63;;;;;;;-1.52;43.74;94567.00;4959948;28;20064;-71
2022/03/11 11:00:31;;;;;;;10.48;5.38;;;;;;;-1.41;43.73;94583.72;4970003;28;20050;-74
2022/03/11 11:03:04;;;;;;;7.53;5.03;;;;;;;-1.21;42.68;94579.03;4967081;28;20493;-74
2022/03/11 11:05:31;;;;;;;7.78;5.35;;;;;;;-1.50;42.56;94585.00;4978663;28;20035;-74
2022/03/11 11:07:58;;;;;;;10.43;6.50;;;;;;;-1.37;42.05;94571.81;4965016;28;20050;-75
2022/03/11 11:10:25;;;;;;;10.90;5.82;;;;;;;-1.02;42.01;94575.34;4963750;28;20387;-75
2022/03/11 11:12:52;;;;;;;11.32;6.25;;;;;;;-0.72;40.76;94571.91;4966600;28;20041;-75
2022/03/11 11:15:19;;;;;;;11.35;6.10;;;;;;;-1.24;41.29;94537.72;4965836;28;20073;-74
2022/03/11 11:17:47;;;;;;;13.10;7.30;;;;;;;-1.17;42.50;94548.88;4966219;28;20117;-74
2022/03/11 11:20:18;;;;;;;15.90;6.85;;;;;;;-0.74;40.76;94569.53;4965406;28;20448;-74
2022/03/11 11:22:45;;;;;;;12.45;7.07;;;;;;;-0.64;40.72;94553.31;4965036;28;20282;-73
2022/03/11 11:25:11;;;;;;;12.00;7.50;;;;;;;-0.79;41.05;94558.16;4963308;28;20073;-75